createdAt,value
2018-10-05T00:01:01.835Z,101301.85
2018-10-05T00:03:31.254Z,101301.42
2018-10-05T00:06:00.629Z,101301.02
2018-10-05T00:08:29.447Z,101302.28
2018-10-05T00:10:58.655Z,101302.28
2018-10-05T00:13:27.368Z,101300.56
2018-10-05T00:15:57.090Z,101298.87
2018-10-05T00:18:25.676Z,101297.61
2018-10-05T00:20:55.465Z,101303.98
2018-10-05T00:23:24.456Z,101296.78
2018-10-05T00:25:53.388Z,101301.88
2018-10-05T00:28:22.646Z,101295.48
2018-10-05T00:30:51.415Z,101302.27
2018-10-05T00:33:19.891Z,101301.86
2018-10-05T00:35:49.218Z,101304.01
2018-10-05T00:38:17.712Z,101304.42
2018-10-05T00:40:47.023Z,101302.73
2018-10-05T00:43:16.260Z,101297.19
2018-10-05T00:45:45.675Z,101300.61
2018-10-05T00:48:14.330Z,101293.34
2018-10-05T00:50:42.907Z,101295.50
2018-10-05T00:53:11.656Z,101289.53
2018-10-05T00:55:40.184Z,101292.50
2018-10-05T00:58:09.198Z,101278.03
2018-10-05T01:00:37.963Z,101275.03
2018-10-05T01:03:06.763Z,101271.63
2018-10-05T01:05:36.112Z,101272.47
2018-10-05T01:08:04.796Z,101269.92
2018-10-05T01:10:33.672Z,101261.86
2018-10-05T01:13:02.414Z,101256.73
2018-10-05T01:15:31.408Z,101253.31
2018-10-05T01:17:59.797Z,101250.76
2018-10-05T01:20:28.585Z,101250.76
2018-10-05T01:22:57.365Z,101257.16
2018-10-05T01:25:26.130Z,101247.78
2018-10-05T01:27:55.121Z,101250.36
2018-10-05T01:30:24.226Z,101247.35
2018-10-05T01:32:52.789Z,101252.46
2018-10-05T01:35:21.435Z,101257.17
2018-10-05T01:37:49.958Z,101251.63
2018-10-05T01:40:19.161Z,101257.16
2018-10-05T01:42:47.869Z,101252.45
2018-10-05T01:45:16.684Z,101247.36
2018-10-05T01:47:45.848Z,101248.19
2018-10-05T01:50:14.440Z,101246.93
2018-10-05T01:52:43.893Z,101245.66
2018-10-05T01:55:12.870Z,101243.50
2018-10-05T01:57:42.005Z,101244.34
2018-10-05T02:00:10.669Z,101235.83
2018-10-05T02:02:40.294Z,101238.38
2018-10-05T02:05:09.681Z,101234.98
2018-10-05T02:07:38.166Z,101239.23
2018-10-05T02:10:07.116Z,101240.87
2018-10-05T02:12:36.247Z,101232.77
2018-10-05T02:15:05.154Z,101240.45
2018-10-05T02:17:34.164Z,101233.22
2018-10-05T02:20:03.018Z,101236.63
2018-10-05T02:22:31.559Z,101233.66
2018-10-05T02:25:00.441Z,101231.95
2018-10-05T02:27:28.996Z,101231.91
2018-10-05T02:29:58.166Z,101224.66
2018-10-05T02:32:27.612Z,101222.96
2018-10-05T02:34:56.097Z,101220.41
2018-10-05T02:37:24.441Z,101216.96
2018-10-05T02:39:52.823Z,101216.11
2018-10-05T02:42:21.147Z,101208.88
2018-10-05T02:44:49.517Z,101205.91
2018-10-05T02:47:18.001Z,101204.64
2018-10-05T02:49:46.391Z,101197.38
2018-10-05T02:52:14.928Z,101199.09
2018-10-05T02:54:43.608Z,101193.96
2018-10-05T02:57:12.094Z,101191.85
2018-10-05T02:59:40.453Z,101187.16
2018-10-05T03:02:20.082Z,101188.02
2018-10-05T03:04:48.748Z,101180.77
2018-10-05T03:07:17.082Z,101176.97
2018-10-05T03:09:45.559Z,101174.40
2018-10-05T03:12:14.006Z,101176.11
2018-10-05T03:14:42.363Z,101176.08
2018-10-05T03:17:10.719Z,101175.22
2018-10-05T03:19:39.199Z,101172.21
2018-10-05T03:22:07.818Z,101179.87
2018-10-05T03:24:36.214Z,101175.20
2018-10-05T03:27:04.583Z,101173.07
2018-10-05T03:29:33.018Z,101167.98
2018-10-05T03:32:01.371Z,101171.83
2018-10-05T03:34:29.826Z,101175.22
2018-10-05T03:36:58.346Z,101170.52
2018-10-05T03:39:26.861Z,101168.84
2018-10-05T03:41:55.351Z,101175.22
2018-10-05T03:44:23.815Z,101171.80
2018-10-05T03:46:52.505Z,101170.13
2018-10-05T03:49:21.292Z,101174.34
2018-10-05T03:51:50.110Z,101166.30
2018-10-05T03:54:19.365Z,101168.39
2018-10-05T03:56:47.727Z,101161.54
2018-10-05T03:59:16.432Z,101154.30
2018-10-05T04:01:44.854Z,101156.86
2018-10-05T04:04:13.237Z,101153.45
2018-10-05T04:06:42.393Z,101156.44
2018-10-05T04:09:11.421Z,101156.42
2018-10-05T04:11:39.763Z,101152.20
2018-10-05T04:14:08.438Z,101153.45
2018-10-05T04:16:36.885Z,101157.25
2018-10-05T04:19:05.275Z,101156.42
2018-10-05T04:21:33.910Z,101153.42
2018-10-05T04:24:02.659Z,101161.48
2018-10-05T04:26:31.053Z,101160.64
2018-10-05T04:28:59.455Z,101162.78
2018-10-05T04:31:27.860Z,101161.09
2018-10-05T04:33:57.108Z,101163.21
2018-10-05T04:36:25.517Z,101153.81
2018-10-05T04:38:53.901Z,101157.20
2018-10-05T04:41:22.740Z,101153.84
2018-10-05T04:43:51.197Z,101155.95
2018-10-05T04:46:20.440Z,101162.75
2018-10-05T04:48:49.104Z,101159.36
2018-10-05T04:51:17.475Z,101157.63
2018-10-05T04:53:45.840Z,101161.08
2018-10-05T04:56:14.228Z,101160.22
2018-10-05T04:58:42.646Z,101157.20
2018-10-05T05:01:11.582Z,101154.67
2018-10-05T05:03:40.135Z,101158.03
2018-10-05T05:06:09.334Z,101159.77
2018-10-05T05:08:37.902Z,101161.44
2018-10-05T05:11:06.403Z,101163.18
2018-10-05T05:13:34.794Z,101166.55
2018-10-05T05:16:03.143Z,101164.02
2018-10-05T05:18:31.775Z,101165.73
2018-10-05T05:21:00.317Z,101165.31
2018-10-05T05:23:30.146Z,101166.14
2018-10-05T05:25:59.306Z,101165.73
2018-10-05T05:28:27.712Z,101160.20
2018-10-05T05:30:56.079Z,101170.83
2018-10-05T05:33:24.445Z,101170.80
2018-10-05T05:35:52.808Z,101179.72
2018-10-05T05:38:21.157Z,101176.73
2018-10-05T05:40:49.543Z,101181.41
2018-10-05T05:43:17.889Z,101183.50
2018-10-05T05:45:46.330Z,101186.50
2018-10-05T05:48:14.720Z,101182.23
2018-10-05T05:50:43.166Z,101182.68
2018-10-05T05:53:11.908Z,101182.23
2018-10-05T05:55:40.275Z,101183.11
2018-10-05T05:58:08.667Z,101179.29
2018-10-05T06:00:37.001Z,101177.56
2018-10-05T06:03:05.757Z,101182.25
2018-10-05T06:05:34.366Z,101174.20
2018-10-05T06:08:02.841Z,101171.67
2018-10-05T06:10:31.160Z,101175.09
2018-10-05T06:12:59.500Z,101174.27
2018-10-05T06:15:27.910Z,101177.71
2018-10-05T06:17:56.281Z,101173.50
2018-10-05T06:20:24.620Z,101174.79
2018-10-05T06:22:53.020Z,101173.53
2018-10-05T06:25:21.432Z,101176.96
2018-10-05T06:27:50.250Z,101169.34
2018-10-05T06:30:18.714Z,101168.11
2018-10-05T06:32:47.136Z,101174.08
2018-10-05T06:35:15.783Z,101168.13
2018-10-05T06:37:44.170Z,101166.44
2018-10-05T06:40:12.508Z,101168.57
2018-10-05T06:42:40.995Z,101163.48
2018-10-05T06:45:09.382Z,101174.12
2018-10-05T06:47:37.839Z,101173.69
2018-10-05T06:50:06.238Z,101169.42
2018-10-05T06:52:34.619Z,101172.37
2018-10-05T06:55:03.047Z,101171.52
2018-10-05T06:57:31.441Z,101172.37
2018-10-05T06:59:59.821Z,101171.05
2018-10-05T07:02:28.810Z,101167.62
2018-10-05T07:04:57.215Z,101173.14
2018-10-05T07:07:25.698Z,101175.66
2018-10-05T07:09:54.053Z,101175.66
2018-10-05T07:12:22.980Z,101172.61
2018-10-05T07:14:51.923Z,101176.86
2018-10-05T07:17:20.974Z,101171.66
2018-10-05T07:19:49.397Z,101166.91
2018-10-05T07:22:17.859Z,101163.04
2018-10-05T07:24:46.193Z,101168.05
2018-10-05T07:27:14.569Z,101168.38
2018-10-05T07:29:42.931Z,101169.58
2018-10-05T07:32:11.287Z,101169.89
2018-10-05T07:34:40.605Z,101167.23
2018-10-05T07:37:09.087Z,101170.97
2018-10-05T07:39:37.455Z,101167.23
2018-10-05T07:42:05.832Z,101171.91
2018-10-05T07:44:34.749Z,101166.34
2018-10-05T07:47:03.074Z,101169.20
2018-10-05T07:49:31.478Z,101165.05
2018-10-05T07:51:59.858Z,101156.83
2018-10-05T07:54:28.263Z,101154.20
2018-10-05T07:56:56.666Z,101158.66
2018-10-05T07:59:25.059Z,101159.37
2018-10-05T08:01:53.459Z,101158.24
2018-10-05T08:04:52.219Z,101155.50
2018-10-05T08:07:20.633Z,101156.56
2018-10-05T08:09:48.954Z,101155.77
2018-10-05T08:12:17.353Z,101154.88
2018-10-05T08:14:45.783Z,101153.72
2018-10-05T08:17:14.243Z,101155.86
2018-10-05T08:19:42.586Z,101151.28
2018-10-05T08:22:10.951Z,101144.47
2018-10-05T08:24:39.411Z,101145.98
2018-10-05T08:27:07.885Z,101142.70
2018-10-05T08:29:36.259Z,101137.80
2018-10-05T08:32:04.646Z,101137.72
2018-10-05T08:34:33.061Z,101144.08
2018-10-05T08:37:01.423Z,101142.31
2018-10-05T08:39:29.806Z,101137.94
2018-10-05T08:41:58.146Z,101142.64
2018-10-05T08:44:26.520Z,101142.45
2018-10-05T08:46:54.865Z,101145.48
2018-10-05T08:49:23.208Z,101138.45
2018-10-05T08:51:52.052Z,101129.42
2018-10-05T08:54:20.464Z,101133.23
2018-10-05T08:56:48.843Z,101127.02
2018-10-05T08:59:17.210Z,101129.30
2018-10-05T09:01:45.600Z,101125.29
2018-10-05T09:04:13.949Z,101128.37
2018-10-05T09:06:42.323Z,101123.77
2018-10-05T09:09:10.697Z,101120.42
2018-10-05T09:11:39.086Z,101118.46
2018-10-05T09:14:07.887Z,101115.81
2018-10-05T09:16:36.233Z,101109.03
2018-10-05T09:19:04.735Z,101116.68
2018-10-05T09:21:33.089Z,101105.08
2018-10-05T09:24:01.480Z,101104.64
2018-10-05T09:26:30.106Z,101100.49
2018-10-05T09:28:58.498Z,101097.63
2018-10-05T09:31:26.860Z,101096.43
2018-10-05T09:33:55.221Z,101095.64
2018-10-05T09:36:23.575Z,101089.72
2018-10-05T09:38:52.151Z,101087.27
2018-10-05T09:41:20.486Z,101090.53
2018-10-05T09:43:48.890Z,101079.89
2018-10-05T09:46:17.313Z,101083.03
2018-10-05T09:48:45.643Z,101075.69
2018-10-05T09:51:14.016Z,101075.59
2018-10-05T09:53:42.477Z,101066.75
2018-10-05T09:56:10.858Z,101052.70
2018-10-05T09:58:39.155Z,101054.44
2018-10-05T10:01:12.842Z,101057.31
2018-10-05T10:03:41.196Z,101058.05
2018-10-05T10:06:09.601Z,101052.14
2018-10-05T10:08:37.938Z,101045.58
2018-10-05T10:11:06.329Z,101043.82
2018-10-05T10:13:34.721Z,101034.80
2018-10-05T10:16:03.099Z,101033.87
2018-10-05T10:18:31.449Z,101033.69
2018-10-05T10:21:03.723Z,101035.87
2018-10-05T10:23:32.129Z,101038.18
2018-10-05T10:26:00.520Z,101027.81
2018-10-05T10:28:28.970Z,101031.88
2018-10-05T10:30:57.329Z,101029.30
2018-10-05T10:33:25.699Z,101020.65
2018-10-05T10:35:54.122Z,101015.75
2018-10-05T10:38:23.023Z,101010.34
2018-10-05T10:40:51.375Z,101010.94
2018-10-05T10:43:19.759Z,101003.67
2018-10-05T10:45:48.099Z,101005.11
2018-10-05T10:48:16.575Z,100996.95
2018-10-05T10:50:44.858Z,100991.55
2018-10-05T10:53:13.373Z,100995.09
2018-10-05T10:55:41.693Z,100993.94
2018-10-05T10:58:10.074Z,100984.23
2018-10-05T11:00:38.576Z,100983.78
2018-10-05T11:03:07.299Z,100980.22
2018-10-05T11:05:35.735Z,100977.33
2018-10-05T11:08:04.166Z,100976.17
2018-10-05T11:10:32.717Z,100969.45
2018-10-05T11:13:01.430Z,100960.03
2018-10-05T11:15:29.754Z,100962.14
2018-10-05T11:17:58.101Z,100960.41
2018-10-05T11:20:26.486Z,100958.14
2018-10-05T11:22:54.855Z,100947.91
2018-10-05T11:25:23.234Z,100944.21
2018-10-05T11:27:52.245Z,100939.55
2018-10-05T11:30:21.099Z,100928.45
2018-10-05T11:32:49.458Z,100934.48
2018-10-05T11:35:17.903Z,100934.01
2018-10-05T11:37:46.274Z,100920.21
2018-10-05T11:40:14.677Z,100919.95
2018-10-05T11:42:43.072Z,100911.34
2018-10-05T11:45:11.446Z,100907.50
2018-10-05T11:47:39.813Z,100905.17
2018-10-05T11:50:08.271Z,100907.91
2018-10-05T11:52:36.735Z,100904.73
2018-10-05T11:55:05.092Z,100899.23
2018-10-05T11:57:33.887Z,100895.59
2018-10-05T12:00:02.299Z,100895.75
2018-10-05T12:02:30.720Z,100890.98
2018-10-05T12:04:59.699Z,100882.55
2018-10-05T12:07:28.039Z,100880.53
2018-10-05T12:09:56.430Z,100872.97
2018-10-05T12:12:25.515Z,100866.82
2018-10-05T12:14:53.902Z,100861.05
2018-10-05T12:17:22.361Z,100861.04
2018-10-05T12:19:50.776Z,100851.28
2018-10-05T12:22:19.569Z,100853.50
2018-10-05T12:24:51.515Z,100845.88
2018-10-05T12:27:20.092Z,100843.25
2018-10-05T12:29:50.383Z,100848.53
2018-10-05T12:32:18.953Z,100840.84
2018-10-05T12:34:47.800Z,100840.19
2018-10-05T12:37:16.438Z,100839.45
2018-10-05T12:39:44.940Z,100843.00
2018-10-05T12:42:13.410Z,100839.25
2018-10-05T12:44:41.849Z,100838.23
2018-10-05T12:47:11.723Z,100837.61
2018-10-05T12:49:40.313Z,100834.81
2018-10-05T12:52:08.810Z,100830.32
2018-10-05T12:54:37.579Z,100833.14
2018-10-05T12:57:06.446Z,100828.19
2018-10-05T12:59:35.003Z,100825.60
2018-10-05T13:02:04.124Z,100820.25
2018-10-05T13:04:33.257Z,100820.98
2018-10-05T13:07:02.792Z,100818.02
2018-10-05T13:09:31.845Z,100808.09
2018-10-05T13:12:00.722Z,100810.22
2018-10-05T13:14:29.621Z,100807.19
2018-10-05T13:16:59.002Z,100803.36
2018-10-05T13:19:28.156Z,100795.94
2018-10-05T13:21:56.764Z,100795.77
2018-10-05T13:24:25.988Z,100790.94
2018-10-05T13:26:55.116Z,100788.41
2018-10-05T13:29:23.739Z,100780.25
2018-10-05T13:31:52.365Z,100781.02
2018-10-05T13:34:21.152Z,100779.02
2018-10-05T13:36:49.627Z,100778.12
2018-10-05T13:39:19.451Z,100773.83
2018-10-05T13:41:48.059Z,100770.77
2018-10-05T13:44:16.562Z,100771.53
2018-10-05T13:46:45.456Z,100763.84
2018-10-05T13:49:14.577Z,100760.31
2018-10-05T13:51:43.498Z,100756.58
2018-10-05T13:54:12.298Z,100760.40
2018-10-05T13:56:41.288Z,100751.38
2018-10-05T13:59:09.758Z,100748.98
2018-10-05T14:01:38.171Z,100740.34
2018-10-05T14:04:06.560Z,100741.47
2018-10-05T14:06:35.713Z,100740.71
2018-10-05T14:09:07.324Z,100733.44
2018-10-05T14:11:36.385Z,100730.07
2018-10-05T14:14:08.348Z,100724.83
2018-10-05T14:16:37.302Z,100723.99
2018-10-05T14:19:06.215Z,100715.75
2018-10-05T14:21:35.134Z,100714.00
2018-10-05T14:24:04.316Z,100707.64
2018-10-05T14:26:33.611Z,100715.52
2018-10-05T14:29:02.058Z,100710.86
2018-10-05T14:31:30.437Z,100707.04
2018-10-05T14:33:59.717Z,100698.05
2018-10-05T14:36:28.614Z,100697.61
2018-10-05T14:38:57.336Z,100689.72
2018-10-05T14:41:25.800Z,100683.39
2018-10-05T14:43:55.476Z,100674.87
2018-10-05T14:46:23.934Z,100668.48
2018-10-05T14:48:52.470Z,100671.33
2018-10-05T14:51:20.884Z,100670.18
2018-10-05T14:53:49.333Z,100665.30
2018-10-05T14:56:17.690Z,100659.69
2018-10-05T14:58:46.428Z,100658.92
2018-10-05T15:01:14.897Z,100658.53
2018-10-05T15:03:43.294Z,100655.71
2018-10-05T15:06:12.382Z,100653.46
2018-10-05T15:08:41.077Z,100643.44
2018-10-05T15:11:10.137Z,100643.66
2018-10-05T15:13:38.602Z,100635.53
2018-10-05T15:16:07.101Z,100638.48
2018-10-05T15:18:35.814Z,100634.88
2018-10-05T15:21:04.282Z,100634.81
2018-10-05T15:23:33.160Z,100630.73
2018-10-05T15:26:01.608Z,100629.29
2018-10-05T15:28:30.726Z,100621.59
2018-10-05T15:30:59.201Z,100616.29
2018-10-05T15:33:28.465Z,100608.52
2018-10-05T15:35:56.928Z,100609.89
2018-10-05T15:38:26.247Z,100618.42
2018-10-05T15:40:54.663Z,100613.30
2018-10-05T15:43:23.143Z,100610.98
2018-10-05T15:45:51.533Z,100605.69
2018-10-05T15:48:19.934Z,100604.45
2018-10-05T15:50:48.363Z,100600.77
2018-10-05T15:53:16.794Z,100600.30
2018-10-05T15:55:45.260Z,100603.70
2018-10-05T15:58:13.923Z,100594.17
2018-10-05T16:00:42.331Z,100596.95
2018-10-05T16:03:10.891Z,100593.77
2018-10-05T16:05:39.659Z,100591.49
2018-10-05T16:08:08.050Z,100582.66
2018-10-05T16:10:36.725Z,100588.92
2018-10-05T16:13:05.238Z,100587.25
2018-10-05T16:15:33.653Z,100583.00
2018-10-05T16:18:02.049Z,100579.59
2018-10-05T16:20:30.556Z,100578.12
2018-10-05T16:22:59.881Z,100577.37
2018-10-05T16:25:28.759Z,100576.91
2018-10-05T16:27:57.130Z,100578.76
2018-10-05T16:30:25.752Z,100574.72
2018-10-05T16:32:54.145Z,100572.95
2018-10-05T16:35:22.608Z,100569.94
2018-10-05T16:37:51.438Z,100567.91
2018-10-05T16:40:20.003Z,100557.38
2018-10-05T16:42:48.442Z,100564.13
2018-10-05T16:45:16.906Z,100563.33
2018-10-05T16:47:45.326Z,100553.77
2018-10-05T16:50:14.266Z,100549.56
2018-10-05T16:52:42.658Z,100556.92
2018-10-05T16:55:11.110Z,100551.05
2018-10-05T16:57:39.535Z,100544.53
2018-10-05T17:00:08.755Z,100543.55
2018-10-05T17:02:37.159Z,100545.25
2018-10-05T17:05:05.652Z,100544.05
2018-10-05T17:07:34.195Z,100535.69
2018-10-05T17:10:02.767Z,100543.06
2018-10-05T17:12:31.126Z,100544.83
2018-10-05T17:14:59.533Z,100547.79
2018-10-05T17:17:27.846Z,100545.33
2018-10-05T17:19:56.258Z,100539.39
2018-10-05T17:22:24.655Z,100537.97
2018-10-05T17:24:53.326Z,100538.84
2018-10-05T17:27:21.694Z,100541.66
2018-10-05T17:29:50.283Z,100539.73
2018-10-05T17:32:18.719Z,100538.01
2018-10-05T17:34:47.282Z,100535.43
2018-10-05T17:37:15.686Z,100533.95
2018-10-05T17:39:44.039Z,100530.89
2018-10-05T17:42:12.692Z,100533.33
2018-10-05T17:44:41.109Z,100526.19
2018-10-05T17:47:09.479Z,100531.09
2018-10-05T17:49:37.862Z,100522.20
2018-10-05T17:52:06.455Z,100518.22
2018-10-05T17:54:34.973Z,100522.26
2018-10-05T17:57:03.384Z,100515.23
2018-10-05T17:59:31.766Z,100515.41
2018-10-05T18:02:00.217Z,100517.86
2018-10-05T18:04:28.542Z,100517.53
2018-10-05T18:06:57.187Z,100511.29
2018-10-05T18:09:25.675Z,100509.33
2018-10-05T18:11:54.971Z,100504.38
2018-10-05T18:14:23.459Z,100506.62
2018-10-05T18:16:51.942Z,100505.08
2018-10-05T18:19:20.431Z,100499.34
2018-10-05T18:21:48.855Z,100504.31
2018-10-05T18:24:17.199Z,100502.44
2018-10-05T18:26:45.567Z,100501.75
2018-10-05T18:29:13.964Z,100501.16
2018-10-05T18:31:42.633Z,100496.39
2018-10-05T18:34:11.194Z,100496.31
2018-10-05T18:36:39.388Z,100499.95
2018-10-05T18:39:10.313Z,100497.34
2018-10-05T18:41:38.659Z,100497.60
2018-10-05T18:44:07.135Z,100494.66
2018-10-05T18:46:35.486Z,100496.05
2018-10-05T18:49:04.202Z,100490.14
2018-10-05T18:51:32.621Z,100489.30
2018-10-05T18:54:01.078Z,100488.02
2018-10-05T18:57:34.340Z,100486.25
2018-10-05T19:00:02.747Z,100483.34
2018-10-05T19:02:31.099Z,100482.13
2018-10-05T19:04:59.536Z,100477.95
2018-10-05T19:07:27.867Z,100478.94
2018-10-05T19:09:56.304Z,100478.83
2018-10-05T19:12:24.721Z,100480.95
2018-10-05T19:14:53.193Z,100472.81
2018-10-05T19:17:21.549Z,100473.36
2018-10-05T19:19:49.937Z,100467.77
2018-10-05T19:22:18.297Z,100470.44
2018-10-05T19:24:47.149Z,100466.61
2018-10-05T19:27:15.797Z,100469.16
2018-10-05T19:29:44.195Z,100463.76
2018-10-05T19:32:13.435Z,100462.22
2018-10-05T19:34:41.958Z,100458.11
2018-10-05T19:37:10.332Z,100456.34
2018-10-05T19:39:38.698Z,100453.52
2018-10-05T19:42:07.142Z,100459.91
2018-10-05T19:44:35.548Z,100457.44
2018-10-05T19:47:03.908Z,100454.88
2018-10-05T19:49:32.490Z,100446.45
2018-10-05T19:52:01.944Z,100443.56
2018-10-05T19:54:30.350Z,100446.71
2018-10-05T19:56:58.707Z,100444.63
2018-10-05T19:59:27.098Z,100447.25
2018-10-05T20:01:55.623Z,100443.53
2018-10-05T20:04:23.979Z,100446.61
2018-10-05T20:06:52.347Z,100452.48
2018-10-05T20:09:20.743Z,100447.41
2018-10-05T20:11:49.190Z,100444.03
2018-10-05T20:14:18.584Z,100432.19
2018-10-05T20:16:47.841Z,100431.21
2018-10-05T20:19:16.207Z,100428.23
2018-10-05T20:21:44.585Z,100418.50
2018-10-05T20:24:12.988Z,100417.59
2018-10-05T20:26:41.456Z,100414.32
2018-10-05T20:29:09.910Z,100422.65
2018-10-05T20:31:38.681Z,100413.45
2018-10-05T20:34:07.538Z,100414.70
2018-10-05T20:36:36.102Z,100406.63
2018-10-05T20:39:05.649Z,100407.63
2018-10-05T20:41:34.023Z,100401.63
2018-10-05T20:44:02.748Z,100401.70
2018-10-05T20:46:34.049Z,100400.45
2018-10-05T20:49:03.288Z,100400.01
2018-10-05T20:51:31.853Z,100398.50
2018-10-05T20:54:00.298Z,100402.74
2018-10-05T20:56:29.059Z,100397.14
2018-10-05T20:58:57.479Z,100400.96
2018-10-05T21:01:26.538Z,100398.78
2018-10-05T21:03:55.260Z,100394.69
2018-10-05T21:06:23.653Z,100392.55
2018-10-05T21:08:52.081Z,100393.16
2018-10-05T21:11:20.435Z,100398.08
2018-10-05T21:13:49.030Z,100396.43
2018-10-05T21:16:20.251Z,100390.97
2018-10-05T21:18:51.614Z,100391.78
2018-10-05T21:21:24.650Z,100385.34
2018-10-05T21:23:57.500Z,100385.48
2018-10-05T21:26:29.519Z,100386.76
2018-10-05T21:29:00.944Z,100382.80
2018-10-05T21:31:32.082Z,100389.81
2018-10-05T21:34:03.994Z,100386.03
2018-10-05T21:36:36.956Z,100388.14
2018-10-05T21:39:10.808Z,100381.45
2018-10-05T21:41:42.094Z,100383.63
2018-10-05T21:44:12.923Z,100385.95
2018-10-05T21:46:43.971Z,100376.02
2018-10-05T21:49:14.662Z,100376.14
2018-10-05T21:51:45.271Z,100380.84
2018-10-05T21:54:16.393Z,100373.52
2018-10-05T21:56:46.924Z,100368.50
2018-10-05T21:59:19.389Z,100368.11
2018-10-05T22:01:52.151Z,100367.20
2018-10-05T22:04:23.714Z,100359.64
2018-10-05T22:06:54.740Z,100352.73
2018-10-05T22:09:25.741Z,100359.53
2018-10-05T22:11:56.749Z,100360.92
2018-10-05T22:14:28.141Z,100362.28
2018-10-05T22:17:00.161Z,100360.19
2018-10-05T22:19:31.653Z,100357.16
2018-10-05T22:22:03.033Z,100353.78
2018-10-05T22:24:33.841Z,100355.92
2018-10-05T22:27:04.897Z,100349.52
2018-10-05T22:29:35.870Z,100343.95
2018-10-05T22:32:04.801Z,100346.25
2018-10-05T22:34:33.158Z,100346.59
2018-10-05T22:37:01.525Z,100344.86
2018-10-05T22:39:30.205Z,100348.34
2018-10-05T22:41:59.093Z,100335.61
2018-10-05T22:44:27.505Z,100340.44
2018-10-05T22:46:56.165Z,100336.78
2018-10-05T22:49:24.523Z,100337.14
2018-10-05T22:51:52.918Z,100334.95
2018-10-05T22:54:21.273Z,100338.22
2018-10-05T22:56:49.643Z,100328.91
2018-10-05T22:59:18.026Z,100326.70
2018-10-05T23:01:46.411Z,100326.67
2018-10-05T23:04:15.252Z,100322.84
2018-10-05T23:06:43.628Z,100320.70
2018-10-05T23:09:12.009Z,100318.53
2018-10-05T23:11:40.450Z,100320.62
2018-10-05T23:14:08.865Z,100313.02
2018-10-05T23:16:37.287Z,100309.12
2018-10-05T23:19:06.414Z,100311.31
2018-10-05T23:21:34.993Z,100310.48
2018-10-05T23:24:03.382Z,100304.69
2018-10-05T23:26:31.804Z,100309.69
2018-10-05T23:29:00.158Z,100305.45
2018-10-05T23:31:28.863Z,100304.20
2018-10-05T23:33:57.261Z,100302.58
2018-10-05T23:36:25.610Z,100303.00
2018-10-05T23:38:54.247Z,100308.48
2018-10-05T23:41:24.837Z,100300.45
2018-10-05T23:43:53.614Z,100298.36
2018-10-05T23:46:22.102Z,100290.80
2018-10-05T23:48:50.465Z,100285.24
2018-10-05T23:51:19.678Z,100291.77
2018-10-05T23:53:48.057Z,100290.23
2018-10-05T23:56:17.377Z,100280.07
2018-10-05T23:58:45.813Z,100282.38
